sensor_id;sensor_type;location;lat;lon;timestamp;P1;durP1;ratioP1;P2;durP2;ratioP2
39362;SDS011;25088;43.238;23.110;2024-03-23T00:53:26;0.30;;;0.30;;
39362;SDS011;25088;43.238;23.110;2024-03-23T00:55:52;0.30;;;0.30;;
39362;SDS011;25088;43.238;23.110;2024-03-23T00:58:17;0.30;;;0.30;;
39362;SDS011;25088;43.238;23.110;2024-03-23T01:00:43;0.30;;;0.30;;
39362;SDS011;25088;43.238;23.110;2024-03-23T01:03:08;0.30;;;0.30;;
39362;SDS011;25088;43.238;23.110;2024-03-23T01:05:34;0.30;;;0.30;;
39362;SDS011;25088;43.238;23.110;2024-03-23T01:07:59;0.30;;;0.30;;
39362;SDS011;25088;43.238;23.110;2024-03-23T01:10:24;0.30;;;0.30;;
39362;SDS011;25088;43.238;23.110;2024-03-23T01:12:50;0.30;;;0.30;;
39362;SDS011;25088;43.238;23.110;2024-03-23T01:15:15;0.28;;;0.28;;
39362;SDS011;25088;43.238;23.110;2024-03-23T01:17:41;0.30;;;0.30;;
39362;SDS011;25088;43.238;23.110;2024-03-23T01:20:06;0.30;;;0.30;;
39362;SDS011;25088;43.238;23.110;2024-03-23T01:22:32;0.30;;;0.30;;
39362;SDS011;25088;43.238;23.110;2024-03-23T01:24:58;0.30;;;0.30;;
39362;SDS011;25088;43.238;23.110;2024-03-23T01:27:24;0.30;;;0.30;;
39362;SDS011;25088;43.238;23.110;2024-03-23T01:29:49;0.30;;;0.30;;
39362;SDS011;25088;43.238;23.110;2024-03-23T01:32:15;0.30;;;0.30;;
39362;SDS011;25088;43.238;23.110;2024-03-23T01:34:41;0.30;;;0.30;;
39362;SDS011;25088;43.238;23.110;2024-03-23T01:37:06;0.30;;;0.30;;
39362;SDS011;25088;43.238;23.110;2024-03-23T01:39:32;0.30;;;0.30;;
39362;SDS011;25088;43.238;23.110;2024-03-23T01:41:57;0.30;;;0.30;;
39362;SDS011;25088;43.238;23.110;2024-03-23T01:44:23;0.22;;;0.22;;
39362;SDS011;25088;43.238;23.110;2024-03-23T01:46:48;0.30;;;0.30;;
39362;SDS011;25088;43.238;23.110;2024-03-23T01:49:14;0.30;;;0.30;;
39362;SDS011;25088;43.238;23.110;2024-03-23T01:51:39;0.30;;;0.30;;
39362;SDS011;25088;43.238;23.110;2024-03-23T01:54:06;0.30;;;0.30;;
39362;SDS011;25088;43.238;23.110;2024-03-23T01:56:32;0.30;;;0.30;;
39362;SDS011;25088;43.238;23.110;2024-03-23T01:59:02;0.30;;;0.30;;
39362;SDS011;25088;43.238;23.110;2024-03-23T02:01:31;0.30;;;0.30;;
39362;SDS011;25088;43.238;23.110;2024-03-23T02:03:57;0.30;;;0.30;;
39362;SDS011;25088;43.238;23.110;2024-03-23T02:06:26;0.30;;;0.30;;
39362;SDS011;25088;43.238;23.110;2024-03-23T02:08:51;0.30;;;0.30;;
39362;SDS011;25088;43.238;23.110;2024-03-23T02:11:18;0.30;;;0.30;;
39362;SDS011;25088;43.238;23.110;2024-03-23T02:13:43;0.30;;;0.30;;
39362;SDS011;25088;43.238;23.110;2024-03-23T02:16:08;0.30;;;0.30;;
39362;SDS011;25088;43.238;23.110;2024-03-23T02:18:34;0.30;;;0.30;;
39362;SDS011;25088;43.238;23.110;2024-03-23T02:20:59;0.30;;;0.30;;
39362;SDS011;25088;43.238;23.110;2024-03-23T02:23:25;0.30;;;0.30;;
39362;SDS011;25088;43.238;23.110;2024-03-23T02:25:50;0.30;;;0.30;;
39362;SDS011;25088;43.238;23.110;2024-03-23T02:28:16;0.30;;;0.30;;
39362;SDS011;25088;43.238;23.110;2024-03-23T02:30:42;0.30;;;0.30;;
39362;SDS011;25088;43.238;23.110;2024-03-23T02:33:08;0.30;;;0.30;;
39362;SDS011;25088;43.238;23.110;2024-03-23T02:35:33;0.30;;;0.30;;
39362;SDS011;25088;43.238;23.110;2024-03-23T02:37:59;0.30;;;0.30;;
39362;SDS011;25088;43.238;23.110;2024-03-23T02:40:24;0.30;;;0.30;;
39362;SDS011;25088;43.238;23.110;2024-03-23T02:42:50;0.30;;;0.30;;
39362;SDS011;25088;43.238;23.110;2024-03-23T02:45:16;0.30;;;0.30;;
39362;SDS011;25088;43.238;23.110;2024-03-23T02:47:42;0.30;;;0.30;;
39362;SDS011;25088;43.238;23.110;2024-03-23T02:50:07;0.30;;;0.30;;
39362;SDS011;25088;43.238;23.110;2024-03-23T02:52:34;0.30;;;0.30;;
39362;SDS011;25088;43.238;23.110;2024-03-23T02:55:00;0.30;;;0.30;;
39362;SDS011;25088;43.238;23.110;2024-03-23T02:57:27;0.30;;;0.30;;
39362;SDS011;25088;43.238;23.110;2024-03-23T02:59:52;0.30;;;0.30;;
39362;SDS011;25088;43.238;23.110;2024-03-23T03:02:18;0.30;;;0.30;;
39362;SDS011;25088;43.238;23.110;2024-03-23T03:04:44;0.30;;;0.30;;
39362;SDS011;25088;43.238;23.110;2024-03-23T03:07:09;0.30;;;0.30;;
39362;SDS011;25088;43.238;23.110;2024-03-23T03:09:34;0.30;;;0.30;;
39362;SDS011;25088;43.238;23.110;2024-03-23T03:12:01;0.30;;;0.30;;
39362;SDS011;25088;43.238;23.110;2024-03-23T03:14:27;0.38;;;0.38;;
39362;SDS011;25088;43.238;23.110;2024-03-23T03:16:53;0.30;;;0.30;;
39362;SDS011;25088;43.238;23.110;2024-03-23T03:19:18;0.30;;;0.30;;
39362;SDS011;25088;43.238;23.110;2024-03-23T03:21:44;0.30;;;0.30;;
39362;SDS011;25088;43.238;23.110;2024-03-23T03:24:09;0.30;;;0.30;;
39362;SDS011;25088;43.238;23.110;2024-03-23T03:26:35;0.30;;;0.30;;
39362;SDS011;25088;43.238;23.110;2024-03-23T03:29:00;0.30;;;0.30;;
39362;SDS011;25088;43.238;23.110;2024-03-23T03:31:26;0.30;;;0.30;;
39362;SDS011;25088;43.238;23.110;2024-03-23T03:33:51;0.30;;;0.30;;
39362;SDS011;25088;43.238;23.110;2024-03-23T03:36:17;0.30;;;0.30;;
39362;SDS011;25088;43.238;23.110;2024-03-23T03:38:42;0.30;;;0.30;;
39362;SDS011;25088;43.238;23.110;2024-03-23T03:41:08;0.30;;;0.30;;
39362;SDS011;25088;43.238;23.110;2024-03-23T03:43:33;0.30;;;0.30;;
39362;SDS011;25088;43.238;23.110;2024-03-23T03:45:59;0.30;;;0.30;;
39362;SDS011;25088;43.238;23.110;2024-03-23T03:48:26;0.40;;;0.40;;
39362;SDS011;25088;43.238;23.110;2024-03-23T03:50:53;0.40;;;0.40;;
39362;SDS011;25088;43.238;23.110;2024-03-23T03:53:19;0.40;;;0.40;;
39362;SDS011;25088;43.238;23.110;2024-03-23T03:55:46;0.30;;;0.30;;
39362;SDS011;25088;43.238;23.110;2024-03-23T03:58:11;0.30;;;0.30;;
39362;SDS011;25088;43.238;23.110;2024-03-23T04:00:37;0.30;;;0.30;;
39362;SDS011;25088;43.238;23.110;2024-03-23T04:03:02;0.40;;;0.40;;
39362;SDS011;25088;43.238;23.110;2024-03-23T04:05:28;0.30;;;0.30;;
39362;SDS011;25088;43.238;23.110;2024-03-23T04:07:54;0.40;;;0.40;;
39362;SDS011;25088;43.238;23.110;2024-03-23T04:10:19;0.30;;;0.30;;
39362;SDS011;25088;43.238;23.110;2024-03-23T04:12:45;0.40;;;0.40;;
39362;SDS011;25088;43.238;23.110;2024-03-23T04:15:12;0.30;;;0.30;;
39362;SDS011;25088;43.238;23.110;2024-03-23T04:17:37;0.30;;;0.30;;
39362;SDS011;25088;43.238;23.110;2024-03-23T04:20:03;0.30;;;0.30;;
39362;SDS011;25088;43.238;23.110;2024-03-23T04:22:33;0.30;;;0.30;;
39362;SDS011;25088;43.238;23.110;2024-03-23T04:24:58;0.30;;;0.30;;
39362;SDS011;25088;43.238;23.110;2024-03-23T04:27:24;0.30;;;0.30;;
39362;SDS011;25088;43.238;23.110;2024-03-23T04:29:50;0.30;;;0.30;;
39362;SDS011;25088;43.238;23.110;2024-03-23T04:32:16;0.30;;;0.30;;
39362;SDS011;25088;43.238;23.110;2024-03-23T04:34:41;0.30;;;0.30;;
39362;SDS011;25088;43.238;23.110;2024-03-23T04:37:08;0.30;;;0.30;;
39362;SDS011;25088;43.238;23.110;2024-03-23T04:39:34;0.30;;;0.30;;
39362;SDS011;25088;43.238;23.110;2024-03-23T04:42:01;0.30;;;0.30;;
39362;SDS011;25088;43.238;23.110;2024-03-23T04:44:26;0.30;;;0.30;;
39362;SDS011;25088;43.238;23.110;2024-03-23T04:46:52;0.38;;;0.38;;
39362;SDS011;25088;43.238;23.110;2024-03-23T04:49:17;0.30;;;0.30;;
39362;SDS011;25088;43.238;23.110;2024-03-23T04:51:42;0.30;;;0.30;;
39362;SDS011;25088;43.238;23.110;2024-03-23T04:54:11;0.30;;;0.30;;
39362;SDS011;25088;43.238;23.110;2024-03-23T04:56:37;0.30;;;0.30;;
39362;SDS011;25088;43.238;23.110;2024-03-23T04:59:02;0.30;;;0.30;;
39362;SDS011;25088;43.238;23.110;2024-03-23T05:01:30;0.30;;;0.30;;
39362;SDS011;25088;43.238;23.110;2024-03-23T05:03:56;0.30;;;0.30;;
39362;SDS011;25088;43.238;23.110;2024-03-23T05:06:22;0.30;;;0.30;;
39362;SDS011;25088;43.238;23.110;2024-03-23T05:08:48;0.30;;;0.30;;
39362;SDS011;25088;43.238;23.110;2024-03-23T05:11:14;0.30;;;0.30;;
39362;SDS011;25088;43.238;23.110;2024-03-23T05:13:40;0.30;;;0.30;;
39362;SDS011;25088;43.238;23.110;2024-03-23T05:16:06;0.30;;;0.30;;
39362;SDS011;25088;43.238;23.110;2024-03-23T05:18:33;0.30;;;0.30;;
39362;SDS011;25088;43.238;23.110;2024-03-23T05:20:59;0.30;;;0.30;;
39362;SDS011;25088;43.238;23.110;2024-03-23T05:23:24;0.30;;;0.30;;
39362;SDS011;25088;43.238;23.110;2024-03-23T05:25:51;0.20;;;0.20;;
39362;SDS011;25088;43.238;23.110;2024-03-23T05:28:19;0.20;;;0.20;;
39362;SDS011;25088;43.238;23.110;2024-03-23T05:30:55;0.20;;;0.20;;
39362;SDS011;25088;43.238;23.110;2024-03-23T05:33:21;0.20;;;0.20;;
39362;SDS011;25088;43.238;23.110;2024-03-23T05:35:47;0.20;;;0.20;;
39362;SDS011;25088;43.238;23.110;2024-03-23T05:38:22;0.20;;;0.20;;
39362;SDS011;25088;43.238;23.110;2024-03-23T05:40:54;0.20;;;0.20;;
39362;SDS011;25088;43.238;23.110;2024-03-23T05:43:23;0.20;;;0.20;;
39362;SDS011;25088;43.238;23.110;2024-03-23T05:45:58;0.20;;;0.20;;
39362;SDS011;25088;43.238;23.110;2024-03-23T05:48:25;0.20;;;0.20;;
39362;SDS011;25088;43.238;23.110;2024-03-23T05:50:51;0.20;;;0.20;;
39362;SDS011;25088;43.238;23.110;2024-03-23T05:53:17;0.20;;;0.20;;
39362;SDS011;25088;43.238;23.110;2024-03-23T05:55:45;0.20;;;0.20;;
39362;SDS011;25088;43.238;23.110;2024-03-23T05:58:12;0.20;;;0.20;;
39362;SDS011;25088;43.238;23.110;2024-03-23T06:00:39;0.20;;;0.20;;
39362;SDS011;25088;43.238;23.110;2024-03-23T06:03:05;0.15;;;0.15;;
39362;SDS011;25088;43.238;23.110;2024-03-23T06:05:30;0.10;;;0.10;;
39362;SDS011;25088;43.238;23.110;2024-03-23T06:07:56;0.10;;;0.10;;
39362;SDS011;25088;43.238;23.110;2024-03-23T06:10:21;0.10;;;0.10;;
39362;SDS011;25088;43.238;23.110;2024-03-23T06:12:47;0.10;;;0.10;;
39362;SDS011;25088;43.238;23.110;2024-03-23T06:15:14;0.10;;;0.10;;
39362;SDS011;25088;43.238;23.110;2024-03-23T06:17:39;0.10;;;0.10;;
39362;SDS011;25088;43.238;23.110;2024-03-23T06:20:05;0.00;;;0.00;;
39362;SDS011;25088;43.238;23.110;2024-03-23T06:22:31;0.10;;;0.10;;
39362;SDS011;25088;43.238;23.110;2024-03-23T06:24:57;0.10;;;0.10;;
39362;SDS011;25088;43.238;23.110;2024-03-23T06:27:22;0.10;;;0.10;;
39362;SDS011;25088;43.238;23.110;2024-03-23T06:29:48;0.10;;;0.10;;
39362;SDS011;25088;43.238;23.110;2024-03-23T06:32:13;0.10;;;0.10;;
39362;SDS011;25088;43.238;23.110;2024-03-23T06:34:41;0.10;;;0.10;;
39362;SDS011;25088;43.238;23.110;2024-03-23T06:37:07;0.00;;;0.00;;
39362;SDS011;25088;43.238;23.110;2024-03-23T06:39:34;0.00;;;0.00;;
39362;SDS011;25088;43.238;23.110;2024-03-23T06:42:03;0.00;;;0.00;;
39362;SDS011;25088;43.238;23.110;2024-03-23T06:44:28;0.00;;;0.00;;
39362;SDS011;25088;43.238;23.110;2024-03-23T06:46:54;0.00;;;0.00;;
39362;SDS011;25088;43.238;23.110;2024-03-23T06:49:20;0.00;;;0.00;;
39362;SDS011;25088;43.238;23.110;2024-03-23T06:51:45;0.00;;;0.00;;
39362;SDS011;25088;43.238;23.110;2024-03-23T06:54:11;0.00;;;0.00;;
39362;SDS011;25088;43.238;23.110;2024-03-23T06:56:37;0.00;;;0.00;;
39362;SDS011;25088;43.238;23.110;2024-03-23T06:59:02;0.00;;;0.00;;
39362;SDS011;25088;43.238;23.110;2024-03-23T07:01:28;0.00;;;0.00;;
39362;SDS011;25088;43.238;23.110;2024-03-23T07:03:56;0.00;;;0.00;;
39362;SDS011;25088;43.238;23.110;2024-03-23T07:06:21;0.00;;;0.00;;
39362;SDS011;25088;43.238;23.110;2024-03-23T07:08:47;0.00;;;0.00;;
39362;SDS011;25088;43.238;23.110;2024-03-23T07:11:18;0.00;;;0.00;;
39362;SDS011;25088;43.238;23.110;2024-03-23T07:13:45;0.00;;;0.00;;
39362;SDS011;25088;43.238;23.110;2024-03-23T07:16:11;0.00;;;0.00;;
39362;SDS011;25088;43.238;23.110;2024-03-23T07:18:38;0.00;;;0.00;;
39362;SDS011;25088;43.238;23.110;2024-03-23T07:21:03;0.00;;;0.00;;
39362;SDS011;25088;43.238;23.110;2024-03-23T07:23:31;0.00;;;0.00;;
39362;SDS011;25088;43.238;23.110;2024-03-23T07:28:23;0.00;;;0.00;;
39362;SDS011;25088;43.238;23.110;2024-03-23T07:30:48;0.00;;;0.00;;
39362;SDS011;25088;43.238;23.110;2024-03-23T07:33:23;0.00;;;0.00;;
39362;SDS011;25088;43.238;23.110;2024-03-23T07:35:49;0.00;;;0.00;;
39362;SDS011;25088;43.238;23.110;2024-03-23T07:38:14;0.00;;;0.00;;
39362;SDS011;25088;43.238;23.110;2024-03-23T07:40:39;0.00;;;0.00;;
39362;SDS011;25088;43.238;23.110;2024-03-23T07:43:05;0.00;;;0.00;;
39362;SDS011;25088;43.238;23.110;2024-03-23T07:45:30;0.00;;;0.00;;
39362;SDS011;25088;43.238;23.110;2024-03-23T07:47:56;0.00;;;0.00;;
39362;SDS011;25088;43.238;23.110;2024-03-23T07:50:21;0.00;;;0.00;;
39362;SDS011;25088;43.238;23.110;2024-03-23T07:52:47;0.00;;;0.00;;
39362;SDS011;25088;43.238;23.110;2024-03-23T07:55:12;0.00;;;0.00;;
39362;SDS011;25088;43.238;23.110;2024-03-23T07:57:37;0.00;;;0.00;;
39362;SDS011;25088;43.238;23.110;2024-03-23T08:00:03;0.00;;;0.00;;
39362;SDS011;25088;43.238;23.110;2024-03-23T08:02:29;0.00;;;0.00;;
39362;SDS011;25088;43.238;23.110;2024-03-23T08:04:56;0.00;;;0.00;;
39362;SDS011;25088;43.238;23.110;2024-03-23T08:07:21;0.00;;;0.00;;
39362;SDS011;25088;43.238;23.110;2024-03-23T08:09:46;0.00;;;0.00;;
39362;SDS011;25088;43.238;23.110;2024-03-23T08:12:12;0.00;;;0.00;;
39362;SDS011;25088;43.238;23.110;2024-03-23T08:14:37;0.00;;;0.00;;
39362;SDS011;25088;43.238;23.110;2024-03-23T08:17:03;0.00;;;0.00;;
39362;SDS011;25088;43.238;23.110;2024-03-23T08:19:28;0.00;;;0.00;;
39362;SDS011;25088;43.238;23.110;2024-03-23T08:21:54;0.00;;;0.00;;
39362;SDS011;25088;43.238;23.110;2024-03-23T08:24:19;0.00;;;0.00;;
39362;SDS011;25088;43.238;23.110;2024-03-23T08:26:45;0.00;;;0.00;;
39362;SDS011;25088;43.238;23.110;2024-03-23T08:29:10;0.00;;;0.00;;
39362;SDS011;25088;43.238;23.110;2024-03-23T08:31:35;0.00;;;0.00;;
39362;SDS011;25088;43.238;23.110;2024-03-23T08:34:01;0.00;;;0.00;;
39362;SDS011;25088;43.238;23.110;2024-03-23T08:36:26;0.00;;;0.00;;
39362;SDS011;25088;43.238;23.110;2024-03-23T08:38:52;0.00;;;0.00;;
39362;SDS011;25088;43.238;23.110;2024-03-23T08:41:18;0.00;;;0.00;;
39362;SDS011;25088;43.238;23.110;2024-03-23T08:43:44;0.00;;;0.00;;
39362;SDS011;25088;43.238;23.110;2024-03-23T08:46:13;0.00;;;0.00;;
39362;SDS011;25088;43.238;23.110;2024-03-23T08:48:43;0.00;;;0.00;;
39362;SDS011;25088;43.238;23.110;2024-03-23T08:51:11;0.00;;;0.00;;
39362;SDS011;25088;43.238;23.110;2024-03-23T08:53:38;0.00;;;0.00;;
39362;SDS011;25088;43.238;23.110;2024-03-23T08:56:04;0.00;;;0.00;;
39362;SDS011;25088;43.238;23.110;2024-03-23T08:58:32;0.00;;;0.00;;
39362;SDS011;25088;43.238;23.110;2024-03-23T09:01:31;0.00;;;0.00;;
39362;SDS011;25088;43.238;23.110;2024-03-23T09:03:49;0.00;;;0.00;;
39362;SDS011;25088;43.238;23.110;2024-03-23T09:06:15;0.00;;;0.00;;
39362;SDS011;25088;43.238;23.110;2024-03-23T09:08:40;0.00;;;0.00;;
39362;SDS011;25088;43.238;23.110;2024-03-23T09:11:07;0.00;;;0.00;;
39362;SDS011;25088;43.238;23.110;2024-03-23T09:13:34;0.00;;;0.00;;
39362;SDS011;25088;43.238;23.110;2024-03-23T09:16:01;0.00;;;0.00;;
39362;SDS011;25088;43.238;23.110;2024-03-23T09:18:27;0.00;;;0.00;;
39362;SDS011;25088;43.238;23.110;2024-03-23T09:20:52;0.00;;;0.00;;
39362;SDS011;25088;43.238;23.110;2024-03-23T09:23:20;0.00;;;0.00;;
39362;SDS011;25088;43.238;23.110;2024-03-23T09:25:46;0.00;;;0.00;;
39362;SDS011;25088;43.238;23.110;2024-03-23T09:28:11;0.00;;;0.00;;
39362;SDS011;25088;43.238;23.110;2024-03-23T09:30:37;0.00;;;0.00;;
39362;SDS011;25088;43.238;23.110;2024-03-23T09:33:08;0.00;;;0.00;;
39362;SDS011;25088;43.238;23.110;2024-03-23T09:35:38;0.00;;;0.00;;
39362;SDS011;25088;43.238;23.110;2024-03-23T09:38:04;0.00;;;0.00;;
39362;SDS011;25088;43.238;23.110;2024-03-23T09:40:30;0.00;;;0.00;;
39362;SDS011;25088;43.238;23.110;2024-03-23T09:42:56;0.00;;;0.00;;
39362;SDS011;25088;43.238;23.110;2024-03-23T09:45:23;0.00;;;0.00;;
39362;SDS011;25088;43.238;23.110;2024-03-23T09:47:52;0.00;;;0.00;;
39362;SDS011;25088;43.238;23.110;2024-03-23T09:50:18;0.00;;;0.00;;
39362;SDS011;25088;43.238;23.110;2024-03-23T09:52:45;0.00;;;0.00;;
39362;SDS011;25088;43.238;23.110;2024-03-23T09:55:11;0.00;;;0.00;;
39362;SDS011;25088;43.238;23.110;2024-03-23T09:57:36;0.00;;;0.00;;
39362;SDS011;25088;43.238;23.110;2024-03-23T10:00:02;0.00;;;0.00;;
39362;SDS011;25088;43.238;23.110;2024-03-23T10:02:29;0.00;;;0.00;;
39362;SDS011;25088;43.238;23.110;2024-03-23T10:04:54;0.00;;;0.00;;
39362;SDS011;25088;43.238;23.110;2024-03-23T10:07:20;0.00;;;0.00;;
39362;SDS011;25088;43.238;23.110;2024-03-23T10:09:49;0.00;;;0.00;;
39362;SDS011;25088;43.238;23.110;2024-03-23T10:12:18;0.00;;;0.00;;
39362;SDS011;25088;43.238;23.110;2024-03-23T10:14:45;0.00;;;0.00;;
39362;SDS011;25088;43.238;23.110;2024-03-23T10:17:12;0.00;;;0.00;;
39362;SDS011;25088;43.238;23.110;2024-03-23T10:19:43;0.00;;;0.00;;
39362;SDS011;25088;43.238;23.110;2024-03-23T10:22:09;0.00;;;0.00;;
39362;SDS011;25088;43.238;23.110;2024-03-23T10:24:38;0.00;;;0.00;;
39362;SDS011;25088;43.238;23.110;2024-03-23T10:27:03;0.00;;;0.00;;
39362;SDS011;25088;43.238;23.110;2024-03-23T10:29:29;0.00;;;0.00;;
39362;SDS011;25088;43.238;23.110;2024-03-23T10:31:55;0.00;;;0.00;;
39362;SDS011;25088;43.238;23.110;2024-03-23T10:34:36;0.00;;;0.00;;
39362;SDS011;25088;43.238;23.110;2024-03-23T10:37:02;0.00;;;0.00;;
39362;SDS011;25088;43.238;23.110;2024-03-23T10:39:32;0.00;;;0.00;;
39362;SDS011;25088;43.238;23.110;2024-03-23T10:42:02;0.00;;;0.00;;
39362;SDS011;25088;43.238;23.110;2024-03-23T10:44:28;0.00;;;0.00;;
39362;SDS011;25088;43.238;23.110;2024-03-23T10:46:56;0.00;;;0.00;;
39362;SDS011;25088;43.238;23.110;2024-03-23T10:49:26;0.00;;;0.00;;
39362;SDS011;25088;43.238;23.110;2024-03-23T10:51:54;0.00;;;0.00;;
39362;SDS011;25088;43.238;23.110;2024-03-23T10:54:21;0.00;;;0.00;;
39362;SDS011;25088;43.238;23.110;2024-03-23T10:56:49;0.00;;;0.00;;
39362;SDS011;25088;43.238;23.110;2024-03-23T10:59:21;0.00;;;0.00;;
39362;SDS011;25088;43.238;23.110;2024-03-23T11:01:56;0.00;;;0.00;;
39362;SDS011;25088;43.238;23.110;2024-03-23T11:07:02;0.00;;;0.00;;
39362;SDS011;25088;43.238;23.110;2024-03-23T11:09:42;0.00;;;0.00;;
39362;SDS011;25088;43.238;23.110;2024-03-23T11:14:52;0.00;;;0.00;;
39362;SDS011;25088;43.238;23.110;2024-03-23T11:17:35;0.00;;;0.00;;
39362;SDS011;25088;43.238;23.110;2024-03-23T11:20:01;0.00;;;0.00;;
39362;SDS011;25088;43.238;23.110;2024-03-23T11:25:15;0.00;;;0.00;;
39362;SDS011;25088;43.238;23.110;2024-03-23T11:27:43;0.00;;;0.00;;
39362;SDS011;25088;43.238;23.110;2024-03-23T11:32:37;0.00;;;0.00;;
39362;SDS011;25088;43.238;23.110;2024-03-23T11:35:02;0.00;;;0.00;;
39362;SDS011;25088;43.238;23.110;2024-03-23T11:37:28;0.00;;;0.00;;
39362;SDS011;25088;43.238;23.110;2024-03-23T11:39:53;0.00;;;0.00;;
39362;SDS011;25088;43.238;23.110;2024-03-23T11:42:19;0.00;;;0.00;;
39362;SDS011;25088;43.238;23.110;2024-03-23T11:44:46;0.00;;;0.00;;
39362;SDS011;25088;43.238;23.110;2024-03-23T11:47:12;0.00;;;0.00;;
39362;SDS011;25088;43.238;23.110;2024-03-23T11:49:37;0.00;;;0.00;;
39362;SDS011;25088;43.238;23.110;2024-03-23T11:52:06;0.00;;;0.00;;
39362;SDS011;25088;43.238;23.110;2024-03-23T11:54:32;0.00;;;0.00;;
39362;SDS011;25088;43.238;23.110;2024-03-23T11:56:58;0.00;;;0.00;;
39362;SDS011;25088;43.238;23.110;2024-03-23T12:02:14;0.00;;;0.00;;
39362;SDS011;25088;43.238;23.110;2024-03-23T12:04:43;0.00;;;0.00;;
39362;SDS011;25088;43.238;23.110;2024-03-23T12:07:21;0.00;;;0.00;;
39362;SDS011;25088;43.238;23.110;2024-03-23T12:09:47;0.00;;;0.00;;
39362;SDS011;25088;43.238;23.110;2024-03-23T12:12:27;0.00;;;0.00;;
39362;SDS011;25088;43.238;23.110;2024-03-23T12:15:03;0.00;;;0.00;;
39362;SDS011;25088;43.238;23.110;2024-03-23T12:17:31;0.00;;;0.00;;
39362;SDS011;25088;43.238;23.110;2024-03-23T12:19:57;0.00;;;0.00;;
39362;SDS011;25088;43.238;23.110;2024-03-23T12:22:23;0.00;;;0.00;;
39362;SDS011;25088;43.238;23.110;2024-03-23T12:24:49;0.00;;;0.00;;
39362;SDS011;25088;43.238;23.110;2024-03-23T12:27:15;0.00;;;0.00;;
39362;SDS011;25088;43.238;23.110;2024-03-23T12:29:40;0.00;;;0.00;;
39362;SDS011;25088;43.238;23.110;2024-03-23T12:32:11;0.00;;;0.00;;
39362;SDS011;25088;43.238;23.110;2024-03-23T12:34:38;0.00;;;0.00;;
39362;SDS011;25088;43.238;23.110;2024-03-23T12:37:03;0.00;;;0.00;;
39362;SDS011;25088;43.238;23.110;2024-03-23T12:39:31;0.00;;;0.00;;
39362;SDS011;25088;43.238;23.110;2024-03-23T12:41:56;0.00;;;0.00;;
39362;SDS011;25088;43.238;23.110;2024-03-23T12:44:22;0.00;;;0.00;;
39362;SDS011;25088;43.238;23.110;2024-03-23T12:46:47;0.00;;;0.00;;
39362;SDS011;25088;43.238;23.110;2024-03-23T12:49:13;0.00;;;0.00;;
39362;SDS011;25088;43.238;23.110;2024-03-23T12:51:38;0.00;;;0.00;;
39362;SDS011;25088;43.238;23.110;2024-03-23T12:54:04;0.00;;;0.00;;
39362;SDS011;25088;43.238;23.110;2024-03-23T12:56:30;0.00;;;0.00;;
39362;SDS011;25088;43.238;23.110;2024-03-23T12:58:56;0.00;;;0.00;;
39362;SDS011;25088;43.238;23.110;2024-03-23T13:01:25;0.00;;;0.00;;
39362;SDS011;25088;43.238;23.110;2024-03-23T13:03:50;0.00;;;0.00;;
39362;SDS011;25088;43.238;23.110;2024-03-23T13:06:19;0.00;;;0.00;;
39362;SDS011;25088;43.238;23.110;2024-03-23T13:08:45;0.00;;;0.00;;
39362;SDS011;25088;43.238;23.110;2024-03-23T13:11:11;0.00;;;0.00;;
39362;SDS011;25088;43.238;23.110;2024-03-23T13:13:38;0.00;;;0.00;;
39362;SDS011;25088;43.238;23.110;2024-03-23T13:16:03;0.00;;;0.00;;
39362;SDS011;25088;43.238;23.110;2024-03-23T13:18:30;0.00;;;0.00;;
39362;SDS011;25088;43.238;23.110;2024-03-23T13:20:56;0.00;;;0.00;;
39362;SDS011;25088;43.238;23.110;2024-03-23T13:23:22;0.00;;;0.00;;
39362;SDS011;25088;43.238;23.110;2024-03-23T13:25:51;0.00;;;0.00;;
39362;SDS011;25088;43.238;23.110;2024-03-23T13:28:24;0.00;;;0.00;;
39362;SDS011;25088;43.238;23.110;2024-03-23T13:30:50;0.00;;;0.00;;
39362;SDS011;25088;43.238;23.110;2024-03-23T13:33:19;0.00;;;0.00;;
39362;SDS011;25088;43.238;23.110;2024-03-23T13:35:54;0.00;;;0.00;;
39362;SDS011;25088;43.238;23.110;2024-03-23T13:38:21;0.00;;;0.00;;
39362;SDS011;25088;43.238;23.110;2024-03-23T13:43:19;0.00;;;0.00;;
39362;SDS011;25088;43.238;23.110;2024-03-23T13:45:48;0.00;;;0.00;;
39362;SDS011;25088;43.238;23.110;2024-03-23T13:48:16;0.00;;;0.00;;
39362;SDS011;25088;43.238;23.110;2024-03-23T13:50:43;0.00;;;0.00;;
39362;SDS011;25088;43.238;23.110;2024-03-23T13:53:08;0.00;;;0.00;;
39362;SDS011;25088;43.238;23.110;2024-03-23T13:55:34;0.00;;;0.00;;
39362;SDS011;25088;43.238;23.110;2024-03-23T13:57:59;0.00;;;0.00;;
39362;SDS011;25088;43.238;23.110;2024-03-23T14:00:28;0.00;;;0.00;;
39362;SDS011;25088;43.238;23.110;2024-03-23T14:02:53;0.00;;;0.00;;
39362;SDS011;25088;43.238;23.110;2024-03-23T14:05:20;0.00;;;0.00;;
39362;SDS011;25088;43.238;23.110;2024-03-23T14:07:46;0.00;;;0.00;;
39362;SDS011;25088;43.238;23.110;2024-03-23T14:10:11;0.00;;;0.00;;
39362;SDS011;25088;43.238;23.110;2024-03-23T14:12:36;0.00;;;0.00;;
39362;SDS011;25088;43.238;23.110;2024-03-23T14:15:06;0.00;;;0.00;;
39362;SDS011;25088;43.238;23.110;2024-03-23T14:17:32;0.00;;;0.00;;
39362;SDS011;25088;43.238;23.110;2024-03-23T14:19:57;0.00;;;0.00;;
39362;SDS011;25088;43.238;23.110;2024-03-23T14:22:26;0.00;;;0.00;;
39362;SDS011;25088;43.238;23.110;2024-03-23T14:24:52;0.00;;;0.00;;
39362;SDS011;25088;43.238;23.110;2024-03-23T14:27:18;0.00;;;0.00;;
39362;SDS011;25088;43.238;23.110;2024-03-23T14:29:45;0.00;;;0.00;;
39362;SDS011;25088;43.238;23.110;2024-03-23T14:32:12;0.00;;;0.00;;
39362;SDS011;25088;43.238;23.110;2024-03-23T14:34:37;0.00;;;0.00;;
39362;SDS011;25088;43.238;23.110;2024-03-23T14:37:03;0.00;;;0.00;;
39362;SDS011;25088;43.238;23.110;2024-03-23T14:39:29;0.00;;;0.00;;
39362;SDS011;25088;43.238;23.110;2024-03-23T14:41:55;0.00;;;0.00;;
39362;SDS011;25088;43.238;23.110;2024-03-23T14:44:21;0.00;;;0.00;;
39362;SDS011;25088;43.238;23.110;2024-03-23T14:46:47;0.00;;;0.00;;
39362;SDS011;25088;43.238;23.110;2024-03-23T14:49:16;0.00;;;0.00;;
39362;SDS011;25088;43.238;23.110;2024-03-23T14:51:41;0.00;;;0.00;;
39362;SDS011;25088;43.238;23.110;2024-03-23T14:54:07;0.00;;;0.00;;
39362;SDS011;25088;43.238;23.110;2024-03-23T14:56:33;0.00;;;0.00;;
39362;SDS011;25088;43.238;23.110;2024-03-23T14:58:59;0.00;;;0.00;;
39362;SDS011;25088;43.238;23.110;2024-03-23T15:01:25;0.00;;;0.00;;
39362;SDS011;25088;43.238;23.110;2024-03-23T15:03:51;0.00;;;0.00;;
39362;SDS011;25088;43.238;23.110;2024-03-23T15:06:18;0.00;;;0.00;;
39362;SDS011;25088;43.238;23.110;2024-03-23T15:08:44;0.00;;;0.00;;
39362;SDS011;25088;43.238;23.110;2024-03-23T15:11:09;0.00;;;0.00;;
39362;SDS011;25088;43.238;23.110;2024-03-23T15:13:35;0.00;;;0.00;;
39362;SDS011;25088;43.238;23.110;2024-03-23T15:16:01;0.00;;;0.00;;
39362;SDS011;25088;43.238;23.110;2024-03-23T15:18:30;0.00;;;0.00;;
39362;SDS011;25088;43.238;23.110;2024-03-23T15:20:57;0.00;;;0.00;;
39362;SDS011;25088;43.238;23.110;2024-03-23T15:23:37;0.00;;;0.00;;
39362;SDS011;25088;43.238;23.110;2024-03-23T15:26:02;0.00;;;0.00;;
39362;SDS011;25088;43.238;23.110;2024-03-23T15:28:29;0.00;;;0.00;;
39362;SDS011;25088;43.238;23.110;2024-03-23T15:31:27;0.00;;;0.00;;
39362;SDS011;25088;43.238;23.110;2024-03-23T15:33:54;0.00;;;0.00;;
39362;SDS011;25088;43.238;23.110;2024-03-23T15:36:19;0.00;;;0.00;;
39362;SDS011;25088;43.238;23.110;2024-03-23T15:38:45;0.00;;;0.00;;
39362;SDS011;25088;43.238;23.110;2024-03-23T15:41:10;0.00;;;0.00;;